createdAt,value
2022-08-21T00:02:22.474Z,3.00
2022-08-21T00:04:54.511Z,3.13
2022-08-21T00:07:20.718Z,2.95
2022-08-21T00:09:43.763Z,3.00
2022-08-21T00:12:07.569Z,2.90
2022-08-21T00:14:32.063Z,2.80
2022-08-21T00:16:54.815Z,2.90
2022-08-21T00:19:25.803Z,2.60
2022-08-21T00:21:48.593Z,2.83
2022-08-21T00:24:11.284Z,2.60
2022-08-21T00:26:34.147Z,3.10
2022-08-21T00:28:56.684Z,3.23
2022-08-21T00:31:21.524Z,3.42
2022-08-21T00:33:44.079Z,3.33
2022-08-21T00:36:06.939Z,2.95
2022-08-21T00:38:32.407Z,3.53
2022-08-21T00:41:00.172Z,3.17
2022-08-21T00:43:28.996Z,3.15
2022-08-21T00:45:52.628Z,3.03
2022-08-21T00:48:15.947Z,3.15
2022-08-21T00:50:44.174Z,3.33
2022-08-21T00:53:08.708Z,3.47
2022-08-21T00:55:32.243Z,3.50
2022-08-21T00:57:58.507Z,3.30
2022-08-21T01:00:27.649Z,3.63
2022-08-21T01:02:50.226Z,3.53
2022-08-21T01:05:13.169Z,3.90
2022-08-21T01:07:36.105Z,3.92
2022-08-21T01:09:59.293Z,3.83
2022-08-21T01:12:21.997Z,4.13
2022-08-21T01:14:45.666Z,4.50
2022-08-21T01:17:09.716Z,4.40
2022-08-21T01:19:32.418Z,4.57
2022-08-21T01:21:55.767Z,4.40
2022-08-21T01:24:18.741Z,4.65
2022-08-21T01:26:43.268Z,4.65
2022-08-21T01:29:31.337Z,4.77
2022-08-21T01:31:53.997Z,4.82
2022-08-21T01:34:18.582Z,5.50
2022-08-21T01:36:41.315Z,5.20
2022-08-21T01:39:04.755Z,5.20
2022-08-21T01:41:27.466Z,5.40
2022-08-21T01:43:50.309Z,5.50
2022-08-21T01:46:13.967Z,5.40
2022-08-21T01:48:37.289Z,5.30
2022-08-21T01:51:00.213Z,5.55
2022-08-21T01:53:22.724Z,5.67
2022-08-21T01:55:55.835Z,5.60
2022-08-21T01:58:18.389Z,5.82
2022-08-21T02:00:40.996Z,5.60
2022-08-21T02:03:03.800Z,5.72
2022-08-21T02:05:26.667Z,5.53
2022-08-21T02:07:52.398Z,5.70
2022-08-21T02:10:18.514Z,5.40
2022-08-21T02:12:41.052Z,5.25
2022-08-21T02:15:06.283Z,5.35
2022-08-21T02:17:28.823Z,5.30
2022-08-21T02:19:51.528Z,5.63
2022-08-21T02:22:14.090Z,5.53
2022-08-21T02:24:53.755Z,5.38
2022-08-21T02:27:17.672Z,5.38
2022-08-21T02:29:47.280Z,5.43
2022-08-21T02:32:15.833Z,5.47
2022-08-21T02:34:38.469Z,5.32
2022-08-21T02:37:01.064Z,5.68
2022-08-21T02:39:27.406Z,5.57
2022-08-21T02:41:50.524Z,5.13
2022-08-21T02:44:13.050Z,5.13
2022-08-21T02:46:35.701Z,5.30
2022-08-21T02:48:58.353Z,5.05
2022-08-21T02:51:21.602Z,4.95
2022-08-21T02:53:45.409Z,4.60
2022-08-21T02:56:11.581Z,5.35
2022-08-21T02:58:39.665Z,4.78
2022-08-21T03:01:02.650Z,4.80
2022-08-21T03:03:26.656Z,4.38
2022-08-21T03:05:49.711Z,4.40
2022-08-21T03:08:14.823Z,4.75
2022-08-21T03:10:40.790Z,4.47
2022-08-21T03:13:04.243Z,5.00
2022-08-21T03:15:26.898Z,4.50
2022-08-21T03:17:49.918Z,4.60
2022-08-21T03:20:13.586Z,4.90
2022-08-21T03:22:36.392Z,4.50
2022-08-21T03:25:00.464Z,4.50
2022-08-21T03:27:23.273Z,5.35
2022-08-21T03:29:46.101Z,4.50
2022-08-21T03:32:10.309Z,4.90
2022-08-21T03:34:32.822Z,5.43
2022-08-21T03:36:55.312Z,4.78
2022-08-21T03:39:18.064Z,4.57
2022-08-21T03:41:40.627Z,4.77
2022-08-21T03:44:03.619Z,4.68
2022-08-21T03:46:26.148Z,5.47
2022-08-21T03:48:49.430Z,5.15
2022-08-21T03:51:12.065Z,5.10
2022-08-21T03:53:35.072Z,5.50
2022-08-21T03:55:57.705Z,5.63
2022-08-21T03:58:24.016Z,5.72
2022-08-21T04:00:49.679Z,5.47
2022-08-21T04:03:12.287Z,5.70
2022-08-21T04:05:34.849Z,5.13
2022-08-21T04:08:06.946Z,5.30
2022-08-21T04:10:31.896Z,5.68
2022-08-21T04:12:55.157Z,5.72
2022-08-21T04:15:18.083Z,5.38
2022-08-21T04:17:40.782Z,5.43
2022-08-21T04:20:04.046Z,5.38
2022-08-21T04:22:26.807Z,5.53
2022-08-21T04:24:49.367Z,5.70
2022-08-21T04:27:12.439Z,5.30
2022-08-21T04:29:39.830Z,5.63
2022-08-21T04:32:02.754Z,5.38
2022-08-21T04:34:25.382Z,5.47
2022-08-21T04:36:47.919Z,5.75
2022-08-21T04:39:10.602Z,5.32
2022-08-21T04:41:33.172Z,5.20
2022-08-21T04:43:58.943Z,5.03
2022-08-21T04:46:21.705Z,4.80
2022-08-21T04:48:44.375Z,5.13
2022-08-21T04:51:17.730Z,4.57
2022-08-21T04:53:55.233Z,4.93
2022-08-21T04:56:57.681Z,4.72
2022-08-21T04:59:23.495Z,4.88
2022-08-21T05:01:46.688Z,3.97
2022-08-21T05:04:13.801Z,4.70
2022-08-21T05:06:38.821Z,4.40
2022-08-21T05:09:02.625Z,3.95
2022-08-21T05:11:25.172Z,4.13
2022-08-21T05:13:48.510Z,4.15
2022-08-21T05:16:17.880Z,3.97
2022-08-21T05:19:00.492Z,3.53
2022-08-21T05:21:23.072Z,3.60
2022-08-21T05:23:45.659Z,3.80
2022-08-21T05:26:09.762Z,3.60
2022-08-21T05:28:41.157Z,3.30
2022-08-21T05:31:04.041Z,3.20
2022-08-21T05:33:26.855Z,3.35
2022-08-21T05:35:54.416Z,3.45
2022-08-21T05:38:18.374Z,3.30
2022-08-21T05:40:41.103Z,2.97
2022-08-21T05:43:04.123Z,3.10
2022-08-21T05:45:42.122Z,3.20
2022-08-21T05:48:08.564Z,3.03
2022-08-21T05:50:33.756Z,3.17
2022-08-21T05:52:56.566Z,3.20
2022-08-21T05:55:27.283Z,3.00
2022-08-21T05:57:56.499Z,3.20
2022-08-21T06:00:19.111Z,3.25
2022-08-21T06:02:42.112Z,3.17
2022-08-21T06:05:05.232Z,2.78
2022-08-21T06:07:27.935Z,3.00
2022-08-21T06:10:31.742Z,2.85
2022-08-21T06:12:56.127Z,2.92
2022-08-21T06:15:18.880Z,2.92
2022-08-21T06:17:41.614Z,2.90
2022-08-21T06:20:05.619Z,2.80
2022-08-21T06:22:28.356Z,2.63
2022-08-21T06:24:50.965Z,3.17
2022-08-21T06:27:13.679Z,2.88
2022-08-21T06:29:44.634Z,3.05
2022-08-21T06:32:08.543Z,2.63
2022-08-21T06:34:33.517Z,2.80
2022-08-21T06:36:56.227Z,3.33
2022-08-21T06:39:30.746Z,2.90
2022-08-21T06:41:56.055Z,2.83
2022-08-21T06:44:24.547Z,2.97
2022-08-21T06:46:47.589Z,2.90
2022-08-21T06:49:20.008Z,3.20
2022-08-21T06:51:44.281Z,3.00
2022-08-21T06:54:06.972Z,2.90
2022-08-21T06:56:29.520Z,2.90
2022-08-21T06:58:54.827Z,3.08
2022-08-21T07:01:17.605Z,3.30
2022-08-21T07:03:42.494Z,3.30
2022-08-21T07:06:06.772Z,3.28
2022-08-21T07:08:29.359Z,3.40
2022-08-21T07:10:54.514Z,3.78
2022-08-21T07:13:17.692Z,3.53
2022-08-21T07:15:40.341Z,3.60
2022-08-21T07:18:03.115Z,3.33
2022-08-21T07:20:26.214Z,3.67
2022-08-21T07:22:48.824Z,3.72
2022-08-21T07:25:11.481Z,3.80
2022-08-21T07:27:34.795Z,3.92
2022-08-21T07:29:57.455Z,4.30
2022-08-21T07:32:21.473Z,4.20
2022-08-21T07:34:44.327Z,5.00
2022-08-21T07:37:10.233Z,4.40
2022-08-21T07:39:33.084Z,4.50
2022-08-21T07:41:55.837Z,4.32
2022-08-21T07:44:18.629Z,4.10
2022-08-21T07:46:41.296Z,4.00
2022-08-21T07:49:03.879Z,4.22
2022-08-21T07:51:28.839Z,4.40
2022-08-21T07:53:53.878Z,4.10
2022-08-21T07:56:16.482Z,4.20
2022-08-21T07:58:39.207Z,4.20
2022-08-21T08:01:02.145Z,3.90
2022-08-21T08:03:29.082Z,4.65
2022-08-21T08:05:51.991Z,4.88
2022-08-21T08:08:14.813Z,4.13
2022-08-21T08:10:39.108Z,4.50
2022-08-21T08:13:01.843Z,4.75
2022-08-21T08:15:26.437Z,4.75
2022-08-21T08:17:49.355Z,4.70
2022-08-21T08:20:14.048Z,4.47
2022-08-21T08:22:38.696Z,4.25
2022-08-21T08:25:05.159Z,4.30
2022-08-21T08:27:30.461Z,4.50
2022-08-21T08:29:53.124Z,5.07
2022-08-21T08:32:15.989Z,4.80
2022-08-21T08:34:40.132Z,4.90
2022-08-21T08:37:04.121Z,5.20
2022-08-21T08:39:29.604Z,5.32
2022-08-21T08:42:00.637Z,4.70
2022-08-21T08:44:23.671Z,4.90
2022-08-21T08:46:49.669Z,5.45
2022-08-21T08:49:35.142Z,4.90
2022-08-21T08:51:57.709Z,5.10
2022-08-21T08:54:45.833Z,5.18
2022-08-21T08:57:18.060Z,4.67
2022-08-21T08:59:44.360Z,4.53
2022-08-21T09:02:06.992Z,4.45
2022-08-21T09:04:30.134Z,4.65
2022-08-21T09:07:21.691Z,4.80
2022-08-21T09:10:06.004Z,4.70
2022-08-21T09:12:57.189Z,4.75
2022-08-21T09:15:54.239Z,4.88
2022-08-21T09:18:58.672Z,4.90
2022-08-21T09:21:27.086Z,5.63
2022-08-21T09:24:18.664Z,4.63
2022-08-21T09:27:08.936Z,5.40
2022-08-21T09:29:34.235Z,5.75
2022-08-21T09:31:56.943Z,5.50
2022-08-21T09:34:28.023Z,5.20
2022-08-21T09:36:51.708Z,5.93
2022-08-21T09:39:25.511Z,5.25
2022-08-21T09:41:57.971Z,5.50
2022-08-21T09:44:28.273Z,5.18
2022-08-21T09:46:52.251Z,5.53
2022-08-21T09:49:38.090Z,4.70
2022-08-21T09:52:02.335Z,5.35
2022-08-21T09:54:31.074Z,4.82
2022-08-21T09:57:28.705Z,4.60
2022-08-21T09:59:51.659Z,4.88
2022-08-21T10:02:32.353Z,4.60
2022-08-21T10:04:59.937Z,4.45
2022-08-21T10:07:24.788Z,5.00
2022-08-21T10:09:47.433Z,5.05
2022-08-21T10:12:15.648Z,4.85
2022-08-21T10:14:40.008Z,5.10
2022-08-21T10:17:15.509Z,5.03
2022-08-21T10:19:47.116Z,4.90
2022-08-21T10:22:12.378Z,4.75
2022-08-21T10:24:59.064Z,4.90
2022-08-21T10:27:43.251Z,5.57
2022-08-21T10:30:11.539Z,4.95
2022-08-21T10:32:37.504Z,5.35
2022-08-21T10:35:02.851Z,5.05
2022-08-21T10:38:03.391Z,5.00
2022-08-21T10:40:28.625Z,5.20
2022-08-21T10:43:00.381Z,5.88
2022-08-21T10:45:37.475Z,5.45
2022-08-21T10:48:06.686Z,5.10
2022-08-21T10:50:41.240Z,5.47
2022-08-21T10:53:09.545Z,5.07
2022-08-21T10:55:40.300Z,5.38
2022-08-21T10:58:10.927Z,5.57
2022-08-21T11:00:47.001Z,5.32
2022-08-21T11:03:21.359Z,5.35
2022-08-21T11:06:06.897Z,5.90
2022-08-21T11:08:38.777Z,5.82
2022-08-21T11:11:12.271Z,6.10
2022-08-21T11:13:44.192Z,5.57
2022-08-21T11:16:18.489Z,5.65
2022-08-21T11:18:48.101Z,5.63
2022-08-21T11:21:17.175Z,5.63
2022-08-21T11:23:46.473Z,5.40
2022-08-21T11:26:16.826Z,5.82
2022-08-21T11:28:55.417Z,5.95
2022-08-21T11:31:46.046Z,5.53
2022-08-21T11:34:16.836Z,5.60
2022-08-21T11:36:52.411Z,5.70
2022-08-21T11:39:27.707Z,6.28
2022-08-21T11:42:06.934Z,6.10
2022-08-21T11:44:53.763Z,5.90
2022-08-21T11:47:26.708Z,5.72
2022-08-21T11:50:01.261Z,5.70
2022-08-21T11:52:29.885Z,5.10
2022-08-21T11:55:08.915Z,5.47
2022-08-21T11:57:45.333Z,5.03
2022-08-21T12:00:35.370Z,5.35
2022-08-21T12:03:07.531Z,4.70
2022-08-21T12:05:37.310Z,5.20
2022-08-21T12:08:13.076Z,5.30
2022-08-21T12:11:01.069Z,4.80
2022-08-21T12:13:40.530Z,4.85
2022-08-21T12:16:14.368Z,4.90
2022-08-21T12:18:39.025Z,5.10
2022-08-21T12:21:03.473Z,5.13
2022-08-21T12:23:33.508Z,5.10
2022-08-21T12:26:21.054Z,5.60
2022-08-21T12:28:43.745Z,5.03
2022-08-21T12:31:18.747Z,5.35
2022-08-21T12:33:42.124Z,4.80
2022-08-21T12:36:09.133Z,4.80
2022-08-21T12:38:47.146Z,4.55
2022-08-21T12:41:18.995Z,4.60
2022-08-21T12:43:47.709Z,4.40
2022-08-21T12:46:19.324Z,4.60
2022-08-21T12:49:02.513Z,4.57
2022-08-21T12:51:30.236Z,4.47
2022-08-21T12:53:55.318Z,4.85
2022-08-21T12:56:21.215Z,5.05
2022-08-21T12:58:49.206Z,5.15
2022-08-21T13:01:41.846Z,5.70
2022-08-21T13:04:09.239Z,5.32
2022-08-21T13:06:38.885Z,5.47
2022-08-21T13:09:09.593Z,5.25
2022-08-21T13:11:33.985Z,4.95
2022-08-21T13:13:59.107Z,4.93
2022-08-21T13:16:28.727Z,5.13
2022-08-21T13:19:02.526Z,5.45
2022-08-21T13:21:30.769Z,5.35
2022-08-21T13:23:53.432Z,5.25
2022-08-21T13:26:25.008Z,4.80
2022-08-21T13:28:49.619Z,4.97
2022-08-21T13:31:12.394Z,5.20
2022-08-21T13:33:37.525Z,5.55
2022-08-21T13:36:00.277Z,5.68
2022-08-21T13:38:31.772Z,5.87
2022-08-21T13:40:59.332Z,6.03
2022-08-21T13:43:28.704Z,5.38
2022-08-21T13:45:56.230Z,6.28
2022-08-21T13:48:19.671Z,5.75
2022-08-21T13:50:44.120Z,5.40
2022-08-21T13:53:32.077Z,6.10
2022-08-21T13:55:59.951Z,5.50
2022-08-21T13:58:44.164Z,6.15
2022-08-21T14:01:06.979Z,6.25
2022-08-21T14:03:37.178Z,5.67
2022-08-21T14:06:00.690Z,5.28
2022-08-21T14:08:33.840Z,5.82
2022-08-21T14:10:57.350Z,5.22
2022-08-21T14:13:35.245Z,5.30
2022-08-21T14:16:03.100Z,4.67
2022-08-21T14:18:27.070Z,4.47
2022-08-21T14:20:49.714Z,4.80
2022-08-21T14:23:14.657Z,4.65
2022-08-21T14:25:45.778Z,4.70
2022-08-21T14:28:28.846Z,4.47
2022-08-21T14:30:51.694Z,4.25
2022-08-21T14:33:28.571Z,4.55
2022-08-21T14:35:51.159Z,4.78
2022-08-21T14:38:17.453Z,4.65
2022-08-21T14:40:40.241Z,4.57
2022-08-21T14:43:03.314Z,4.68
2022-08-21T14:45:31.648Z,5.20
2022-08-21T14:47:54.844Z,4.28
2022-08-21T14:50:17.844Z,4.63
2022-08-21T14:52:41.801Z,4.57
2022-08-21T14:55:11.631Z,4.70
2022-08-21T14:57:35.280Z,4.53
2022-08-21T15:00:01.762Z,4.50
2022-08-21T15:02:24.871Z,4.25
2022-08-21T15:04:47.545Z,4.80
2022-08-21T15:07:10.232Z,4.22
2022-08-21T15:09:33.129Z,4.28
2022-08-21T15:11:59.614Z,4.47
2022-08-21T15:14:25.830Z,4.50
2022-08-21T15:16:49.397Z,4.40
2022-08-21T15:19:12.132Z,4.30
2022-08-21T15:21:34.719Z,4.15
2022-08-21T15:23:57.270Z,4.50
2022-08-21T15:26:20.405Z,4.15
2022-08-21T15:28:43.408Z,4.23
2022-08-21T15:31:06.590Z,4.07
2022-08-21T15:33:29.724Z,4.38
2022-08-21T15:35:52.416Z,4.30
2022-08-21T15:38:15.815Z,4.50
2022-08-21T15:40:39.941Z,4.70
2022-08-21T15:43:29.945Z,4.40
2022-08-21T15:45:53.996Z,4.40
2022-08-21T15:48:16.774Z,4.53
2022-08-21T15:50:39.443Z,4.40
2022-08-21T15:53:02.114Z,4.13
2022-08-21T15:55:25.004Z,4.25
2022-08-21T15:57:58.057Z,4.22
2022-08-21T16:00:25.460Z,3.75
2022-08-21T16:02:50.433Z,3.88
2022-08-21T16:05:14.275Z,3.97
2022-08-21T16:07:37.472Z,4.03
2022-08-21T16:10:00.133Z,3.78
2022-08-21T16:12:26.653Z,3.90
2022-08-21T16:14:50.808Z,3.40
2022-08-21T16:17:13.471Z,3.80
2022-08-21T16:19:37.327Z,3.55
2022-08-21T16:22:00.400Z,4.00
2022-08-21T16:24:23.007Z,3.60
2022-08-21T16:26:45.882Z,3.88
2022-08-21T16:29:23.165Z,3.47
2022-08-21T16:31:45.899Z,4.15
2022-08-21T16:34:15.551Z,4.10
2022-08-21T16:36:38.180Z,4.00
2022-08-21T16:39:01.450Z,3.53
2022-08-21T16:41:26.638Z,3.80
2022-08-21T16:43:51.585Z,3.70
2022-08-21T16:46:15.924Z,4.13
2022-08-21T16:48:40.109Z,3.90
2022-08-21T16:51:03.068Z,4.25
2022-08-21T16:53:26.038Z,3.80
2022-08-21T16:55:50.561Z,3.97
2022-08-21T16:58:18.380Z,3.58
2022-08-21T17:00:41.060Z,3.72
2022-08-21T17:03:03.931Z,4.00
2022-08-21T17:05:26.694Z,3.63
2022-08-21T17:07:49.637Z,3.60
2022-08-21T17:10:14.963Z,3.40
2022-08-21T17:12:38.112Z,4.03
2022-08-21T17:15:07.871Z,3.40
2022-08-21T17:17:30.551Z,3.40
2022-08-21T17:19:53.088Z,3.28
2022-08-21T17:22:15.791Z,3.15
2022-08-21T17:24:38.516Z,3.80
2022-08-21T17:27:01.415Z,3.40
2022-08-21T17:29:33.019Z,3.10
2022-08-21T17:31:56.249Z,3.33
2022-08-21T17:34:18.920Z,3.28
2022-08-21T17:36:41.584Z,3.30
2022-08-21T17:39:04.970Z,3.40
2022-08-21T17:41:27.726Z,3.10
2022-08-21T17:43:51.623Z,3.08
2022-08-21T17:46:21.771Z,2.97
2022-08-21T17:48:47.242Z,3.15
2022-08-21T17:51:11.771Z,3.42
2022-08-21T17:53:34.930Z,3.10
2022-08-21T17:55:57.727Z,3.22
2022-08-21T17:58:20.644Z,3.42
2022-08-21T18:00:43.932Z,3.17
2022-08-21T18:03:15.023Z,3.15
2022-08-21T18:05:37.588Z,3.00
2022-08-21T18:08:00.210Z,2.90
2022-08-21T18:10:23.298Z,3.03
2022-08-21T18:12:46.019Z,2.58
2022-08-21T18:15:12.243Z,2.60
2022-08-21T18:17:35.414Z,2.80
2022-08-21T18:19:59.676Z,2.80
2022-08-21T18:22:22.261Z,2.58
2022-08-21T18:24:45.754Z,2.80
2022-08-21T18:27:09.738Z,3.10
2022-08-21T18:29:33.711Z,2.90
2022-08-21T18:32:31.731Z,2.63
2022-08-21T18:35:16.208Z,2.80
2022-08-21T18:37:58.665Z,3.10
2022-08-21T18:40:55.576Z,2.97
2022-08-21T18:43:38.850Z,2.73
2022-08-21T18:46:02.252Z,2.80
2022-08-21T18:48:45.704Z,2.90
2022-08-21T18:51:08.524Z,3.03
2022-08-21T18:53:31.200Z,2.92
2022-08-21T18:55:57.753Z,2.73
2022-08-21T18:58:28.540Z,2.85
2022-08-21T19:00:52.723Z,2.90
2022-08-21T19:06:01.244Z,2.83
2022-08-21T19:08:28.795Z,3.20
2022-08-21T19:10:58.287Z,3.03
2022-08-21T19:13:22.248Z,3.30
2022-08-21T19:15:49.943Z,2.90
2022-08-21T19:18:15.719Z,3.00
2022-08-21T19:20:41.631Z,3.30
2022-08-21T19:25:51.800Z,3.25
2022-08-21T19:28:31.128Z,3.00
2022-08-21T19:31:02.038Z,3.10
2022-08-21T19:36:16.163Z,2.75
2022-08-21T19:38:40.287Z,2.90
2022-08-21T19:41:04.419Z,3.08
2022-08-21T19:43:29.234Z,3.20
2022-08-21T19:45:56.878Z,3.10
2022-08-21T19:48:20.109Z,3.20
2022-08-21T19:50:42.795Z,3.13
2022-08-21T19:53:05.897Z,3.20
2022-08-21T19:55:34.848Z,3.58
2022-08-21T19:57:57.615Z,3.23
2022-08-21T20:00:20.389Z,3.00
2022-08-21T20:02:47.929Z,3.03
2022-08-21T20:05:11.003Z,2.90
2022-08-21T20:07:33.642Z,2.63
2022-08-21T20:09:56.978Z,2.73
2022-08-21T20:12:19.871Z,3.00
2022-08-21T20:14:50.110Z,2.20
2022-08-21T20:17:16.276Z,2.45
2022-08-21T20:19:41.452Z,2.20
2022-08-21T20:22:04.915Z,2.23
2022-08-21T20:24:27.989Z,2.22
2022-08-21T20:26:51.108Z,2.50
2022-08-21T20:29:14.166Z,2.28
2022-08-21T20:31:38.734Z,2.50
2022-08-21T20:34:03.604Z,2.40
2022-08-21T20:36:27.353Z,2.30
2022-08-21T20:38:51.937Z,2.50
2022-08-21T20:43:59.826Z,2.47
2022-08-21T20:46:25.757Z,2.10
2022-08-21T20:48:52.790Z,1.90
2022-08-21T20:51:21.366Z,1.90
2022-08-21T20:54:03.452Z,1.90
2022-08-21T20:56:33.088Z,2.20
2022-08-21T20:59:21.462Z,2.00
2022-08-21T21:01:47.242Z,1.75
2022-08-21T21:04:24.993Z,1.98
2022-08-21T21:06:52.462Z,2.00
2022-08-21T21:09:25.571Z,2.13
2022-08-21T21:11:58.907Z,2.23
2022-08-21T21:14:30.380Z,1.90
2022-08-21T21:16:57.290Z,2.13
2022-08-21T21:19:41.795Z,2.30
2022-08-21T21:22:15.960Z,2.03
2022-08-21T21:28:33.128Z,1.65
2022-08-21T21:30:58.071Z,1.90
2022-08-21T21:33:21.850Z,2.10
2022-08-21T21:35:51.884Z,2.10
2022-08-21T21:38:20.870Z,1.97
2022-08-21T21:41:05.621Z,1.80
2022-08-21T21:43:41.004Z,1.65
2022-08-21T21:46:30.649Z,1.70
2022-08-21T21:49:29.985Z,1.80
2022-08-21T21:52:23.698Z,1.43
2022-08-21T21:54:53.555Z,1.40
2022-08-21T21:57:43.981Z,1.38
2022-08-21T22:00:26.426Z,1.30
2022-08-21T22:03:34.391Z,1.40
2022-08-21T22:06:06.616Z,1.30
2022-08-21T22:08:55.418Z,1.50
2022-08-21T22:11:31.956Z,1.45
2022-08-21T22:14:22.763Z,1.60
2022-08-21T22:16:48.304Z,1.65
2022-08-21T22:19:25.414Z,1.70
2022-08-21T22:22:06.225Z,1.60
2022-08-21T22:24:37.636Z,1.52
2022-08-21T22:27:14.956Z,1.75
2022-08-21T22:29:54.680Z,1.92
2022-08-21T22:32:39.701Z,1.80
2022-08-21T22:35:18.640Z,1.85
2022-08-21T22:37:46.187Z,1.85
2022-08-21T22:40:12.956Z,2.00
2022-08-21T22:42:38.731Z,1.70
2022-08-21T22:45:04.926Z,1.60
2022-08-21T22:47:51.051Z,1.83
2022-08-21T22:50:25.626Z,2.00
2022-08-21T22:52:58.970Z,2.17
2022-08-21T22:55:26.760Z,2.20
2022-08-21T22:58:20.455Z,1.83
2022-08-21T23:00:55.208Z,1.92
2022-08-21T23:03:32.709Z,2.28
2022-08-21T23:05:55.542Z,2.50
2022-08-21T23:08:37.909Z,2.60
2022-08-21T23:11:11.427Z,2.70
2022-08-21T23:14:00.151Z,2.85
2022-08-21T23:16:39.538Z,3.10
2022-08-21T23:19:42.965Z,2.78
2022-08-21T23:22:33.252Z,3.13
2022-08-21T23:25:20.421Z,3.20
2022-08-21T23:28:01.394Z,3.10
2022-08-21T23:30:47.080Z,3.38
2022-08-21T23:33:44.027Z,3.15
2022-08-21T23:36:44.679Z,2.90
2022-08-21T23:39:07.210Z,3.03
2022-08-21T23:41:45.421Z,3.22
2022-08-21T23:44:29.049Z,3.00
2022-08-21T23:47:29.007Z,3.13
2022-08-21T23:53:21.396Z,2.80
2022-08-21T23:55:58.259Z,3.10
2022-08-21T23:58:39.745Z,3.05
